sensor_id;sensor_type;location;lat;lon;timestamp;P1;durP1;ratioP1;P2;durP2;ratioP2
56285;SDS011;42191;47.562;9.686;2023-03-21T00:00:36;36.72;;;34.53;;
56285;SDS011;42191;47.562;9.686;2023-03-21T00:03:03;36.15;;;33.88;;
56285;SDS011;42191;47.562;9.686;2023-03-21T00:05:29;36.35;;;34.15;;
56285;SDS011;42191;47.562;9.686;2023-03-21T00:07:55;38.42;;;36.13;;
56285;SDS011;42191;47.562;9.686;2023-03-21T00:10:21;36.85;;;34.55;;
56285;SDS011;42191;47.562;9.686;2023-03-21T00:12:47;37.80;;;35.50;;
56285;SDS011;42191;47.562;9.686;2023-03-21T00:15:22;36.75;;;34.45;;
56285;SDS011;42191;47.562;9.686;2023-03-21T00:17:55;35.60;;;33.40;;
56285;SDS011;42191;47.562;9.686;2023-03-21T00:20:27;37.72;;;35.42;;
56285;SDS011;42191;47.562;9.686;2023-03-21T00:23:01;35.83;;;33.70;;
56285;SDS011;42191;47.562;9.686;2023-03-21T00:25:28;37.50;;;35.20;;
56285;SDS011;42191;47.562;9.686;2023-03-21T00:27:56;37.60;;;35.33;;
56285;SDS011;42191;47.562;9.686;2023-03-21T00:30:23;39.05;;;36.65;;
56285;SDS011;42191;47.562;9.686;2023-03-21T00:32:49;37.72;;;35.42;;
56285;SDS011;42191;47.562;9.686;2023-03-21T00:35:15;34.45;;;32.35;;
56285;SDS011;42191;47.562;9.686;2023-03-21T00:37:41;35.72;;;33.53;;
56285;SDS011;42191;47.562;9.686;2023-03-21T00:40:07;37.22;;;34.88;;
56285;SDS011;42191;47.562;9.686;2023-03-21T00:42:34;37.28;;;34.88;;
56285;SDS011;42191;47.562;9.686;2023-03-21T00:45:01;39.65;;;37.22;;
56285;SDS011;42191;47.562;9.686;2023-03-21T00:47:28;36.03;;;33.80;;
56285;SDS011;42191;47.562;9.686;2023-03-21T00:49:54;36.70;;;34.50;;
56285;SDS011;42191;47.562;9.686;2023-03-21T00:52:21;38.13;;;35.75;;
56285;SDS011;42191;47.562;9.686;2023-03-21T00:54:47;37.45;;;35.15;;
56285;SDS011;42191;47.562;9.686;2023-03-21T00:57:13;36.85;;;34.65;;
56285;SDS011;42191;47.562;9.686;2023-03-21T00:59:39;36.58;;;34.38;;
56285;SDS011;42191;47.562;9.686;2023-03-21T01:02:05;36.28;;;34.08;;
56285;SDS011;42191;47.562;9.686;2023-03-21T01:04:32;37.80;;;35.50;;
56285;SDS011;42191;47.562;9.686;2023-03-21T01:06:58;37.17;;;34.90;;
56285;SDS011;42191;47.562;9.686;2023-03-21T01:09:25;36.88;;;34.65;;
56285;SDS011;42191;47.562;9.686;2023-03-21T01:11:51;39.33;;;36.83;;
56285;SDS011;42191;47.562;9.686;2023-03-21T01:14:18;36.38;;;34.17;;
56285;SDS011;42191;47.562;9.686;2023-03-21T01:16:46;35.72;;;33.53;;
56285;SDS011;42191;47.562;9.686;2023-03-21T01:19:14;37.63;;;35.33;;
56285;SDS011;42191;47.562;9.686;2023-03-21T01:21:42;35.47;;;33.28;;
56285;SDS011;42191;47.562;9.686;2023-03-21T01:24:08;36.85;;;34.55;;
56285;SDS011;42191;47.562;9.686;2023-03-21T01:26:35;37.42;;;35.13;;
56285;SDS011;42191;47.562;9.686;2023-03-21T01:29:02;37.08;;;34.78;;
56285;SDS011;42191;47.562;9.686;2023-03-21T01:31:28;37.38;;;35.08;;
56285;SDS011;42191;47.562;9.686;2023-03-21T01:33:55;37.30;;;34.97;;
56285;SDS011;42191;47.562;9.686;2023-03-21T01:36:22;38.40;;;36.00;;
56285;SDS011;42191;47.562;9.686;2023-03-21T01:38:50;38.55;;;36.15;;
56285;SDS011;42191;47.562;9.686;2023-03-21T01:41:19;38.50;;;36.20;;
56285;SDS011;42191;47.562;9.686;2023-03-21T01:43:51;38.22;;;35.83;;
56285;SDS011;42191;47.562;9.686;2023-03-21T01:51:45;38.58;;;36.17;;
56285;SDS011;42191;47.562;9.686;2023-03-21T01:54:14;36.58;;;34.28;;
56285;SDS011;42191;47.562;9.686;2023-03-21T01:56:48;37.20;;;34.90;;
56285;SDS011;42191;47.562;9.686;2023-03-21T01:59:51;37.40;;;35.13;;
56285;SDS011;42191;47.562;9.686;2023-03-21T02:02:15;36.17;;;33.97;;
56285;SDS011;42191;47.562;9.686;2023-03-21T02:04:44;36.67;;;34.47;;
56285;SDS011;42191;47.562;9.686;2023-03-21T02:07:15;36.90;;;34.70;;
56285;SDS011;42191;47.562;9.686;2023-03-21T02:09:49;37.55;;;35.25;;
56285;SDS011;42191;47.562;9.686;2023-03-21T02:12:17;35.83;;;33.63;;
56285;SDS011;42191;47.562;9.686;2023-03-21T02:14:44;38.15;;;35.78;;
56285;SDS011;42191;47.562;9.686;2023-03-21T02:28:33;37.60;;;35.30;;
56285;SDS011;42191;47.562;9.686;2023-03-21T02:38:51;35.90;;;33.60;;
56285;SDS011;42191;47.562;9.686;2023-03-21T02:41:24;38.17;;;35.88;;
56285;SDS011;42191;47.562;9.686;2023-03-21T02:47:28;36.45;;;34.25;;
56285;SDS011;42191;47.562;9.686;2023-03-21T02:52:37;37.25;;;34.85;;
56285;SDS011;42191;47.562;9.686;2023-03-21T02:55:20;37.35;;;35.05;;
56285;SDS011;42191;47.562;9.686;2023-03-21T02:57:52;36.80;;;34.50;;
56285;SDS011;42191;47.562;9.686;2023-03-21T03:00:21;37.72;;;35.33;;
56285;SDS011;42191;47.562;9.686;2023-03-21T03:02:50;35.25;;;33.15;;
56285;SDS011;42191;47.562;9.686;2023-03-21T03:05:27;36.03;;;33.83;;
56285;SDS011;42191;47.562;9.686;2023-03-21T03:13:20;38.60;;;36.20;;
56285;SDS011;42191;47.562;9.686;2023-03-21T03:19:21;35.00;;;32.80;;
56285;SDS011;42191;47.562;9.686;2023-03-21T03:22:02;37.72;;;35.33;;
56285;SDS011;42191;47.562;9.686;2023-03-21T03:24:35;38.03;;;35.67;;
56285;SDS011;42191;47.562;9.686;2023-03-21T03:27:05;35.78;;;33.58;;
56285;SDS011;42191;47.562;9.686;2023-03-21T03:29:34;36.60;;;34.17;;
56285;SDS011;42191;47.562;9.686;2023-03-21T03:32:09;37.28;;;34.97;;
56285;SDS011;42191;47.562;9.686;2023-03-21T03:34:47;36.40;;;34.10;;
56285;SDS011;42191;47.562;9.686;2023-03-21T03:37:20;38.03;;;35.65;;
56285;SDS011;42191;47.562;9.686;2023-03-21T03:39:59;38.05;;;35.75;;
56285;SDS011;42191;47.562;9.686;2023-03-21T03:42:33;38.03;;;35.63;;
56285;SDS011;42191;47.562;9.686;2023-03-21T03:45:03;37.88;;;35.53;;
56285;SDS011;42191;47.562;9.686;2023-03-21T03:52:48;40.00;;;37.30;;
56285;SDS011;42191;47.562;9.686;2023-03-21T03:55:36;36.85;;;34.45;;
56285;SDS011;42191;47.562;9.686;2023-03-21T03:58:02;37.80;;;35.50;;
56285;SDS011;42191;47.562;9.686;2023-03-21T04:00:30;38.47;;;36.08;;
56285;SDS011;42191;47.562;9.686;2023-03-21T04:02:58;37.30;;;34.92;;
56285;SDS011;42191;47.562;9.686;2023-03-21T04:05:24;37.88;;;35.55;;
56285;SDS011;42191;47.562;9.686;2023-03-21T04:07:51;38.55;;;36.05;;
56285;SDS011;42191;47.562;9.686;2023-03-21T04:10:19;39.60;;;36.75;;
56285;SDS011;42191;47.562;9.686;2023-03-21T04:12:46;37.50;;;35.20;;
56285;SDS011;42191;47.562;9.686;2023-03-21T04:15:12;36.80;;;34.50;;
56285;SDS011;42191;47.562;9.686;2023-03-21T04:17:40;35.92;;;33.70;;
56285;SDS011;42191;47.562;9.686;2023-03-21T04:20:06;39.60;;;37.17;;
56285;SDS011;42191;47.562;9.686;2023-03-21T04:22:33;37.80;;;35.33;;
56285;SDS011;42191;47.562;9.686;2023-03-21T04:24:59;35.92;;;33.42;;
56285;SDS011;42191;47.562;9.686;2023-03-21T04:27:26;36.65;;;34.35;;
56285;SDS011;42191;47.562;9.686;2023-03-21T04:29:52;36.63;;;34.33;;
56285;SDS011;42191;47.562;9.686;2023-03-21T04:32:20;38.28;;;35.92;;
56285;SDS011;42191;47.562;9.686;2023-03-21T04:34:50;37.17;;;34.67;;
56285;SDS011;42191;47.562;9.686;2023-03-21T04:37:19;39.95;;;37.45;;
56285;SDS011;42191;47.562;9.686;2023-03-21T04:39:47;36.50;;;34.22;;
56285;SDS011;42191;47.562;9.686;2023-03-21T04:42:17;37.83;;;35.45;;
56285;SDS011;42191;47.562;9.686;2023-03-21T04:44:44;38.30;;;35.95;;
56285;SDS011;42191;47.562;9.686;2023-03-21T04:47:10;36.83;;;34.35;;
56285;SDS011;42191;47.562;9.686;2023-03-21T04:49:37;36.67;;;34.40;;
56285;SDS011;42191;47.562;9.686;2023-03-21T04:52:03;38.20;;;35.83;;
56285;SDS011;42191;47.562;9.686;2023-03-21T04:54:30;37.83;;;35.33;;
56285;SDS011;42191;47.562;9.686;2023-03-21T04:56:59;40.70;;;38.00;;
56285;SDS011;42191;47.562;9.686;2023-03-21T04:59:25;38.20;;;35.80;;
56285;SDS011;42191;47.562;9.686;2023-03-21T05:01:52;36.35;;;34.10;;
56285;SDS011;42191;47.562;9.686;2023-03-21T05:04:20;38.28;;;35.88;;
56285;SDS011;42191;47.562;9.686;2023-03-21T05:06:46;38.45;;;35.97;;
56285;SDS011;42191;47.562;9.686;2023-03-21T05:09:13;35.80;;;33.53;;
56285;SDS011;42191;47.562;9.686;2023-03-21T05:11:39;37.47;;;35.08;;
56285;SDS011;42191;47.562;9.686;2023-03-21T05:14:06;37.05;;;34.75;;
56285;SDS011;42191;47.562;9.686;2023-03-21T05:16:34;38.92;;;36.45;;
56285;SDS011;42191;47.562;9.686;2023-03-21T05:19:02;36.50;;;34.20;;
56285;SDS011;42191;47.562;9.686;2023-03-21T05:21:30;40.28;;;37.70;;
56285;SDS011;42191;47.562;9.686;2023-03-21T05:24:05;36.08;;;33.67;;
56285;SDS011;42191;47.562;9.686;2023-03-21T05:26:36;38.60;;;36.17;;
56285;SDS011;42191;47.562;9.686;2023-03-21T05:29:02;35.10;;;32.92;;
56285;SDS011;42191;47.562;9.686;2023-03-21T05:31:29;36.75;;;34.45;;
56285;SDS011;42191;47.562;9.686;2023-03-21T05:33:55;37.05;;;34.75;;
56285;SDS011;42191;47.562;9.686;2023-03-21T05:36:21;38.65;;;36.17;;
56285;SDS011;42191;47.562;9.686;2023-03-21T05:38:47;37.78;;;35.47;;
56285;SDS011;42191;47.562;9.686;2023-03-21T05:41:14;37.15;;;34.78;;
56285;SDS011;42191;47.562;9.686;2023-03-21T05:43:41;36.22;;;33.83;;
56285;SDS011;42191;47.562;9.686;2023-03-21T05:46:07;37.58;;;35.22;;
56285;SDS011;42191;47.562;9.686;2023-03-21T05:48:34;37.28;;;34.97;;
56285;SDS011;42191;47.562;9.686;2023-03-21T05:51:01;38.47;;;36.08;;
56285;SDS011;42191;47.562;9.686;2023-03-21T05:53:27;39.30;;;36.85;;
56285;SDS011;42191;47.562;9.686;2023-03-21T05:55:54;36.33;;;34.13;;
56285;SDS011;42191;47.562;9.686;2023-03-21T05:58:20;40.28;;;37.38;;
56285;SDS011;42191;47.562;9.686;2023-03-21T06:00:46;36.60;;;34.40;;
56285;SDS011;42191;47.562;9.686;2023-03-21T06:03:12;39.03;;;36.42;;
56285;SDS011;42191;47.562;9.686;2023-03-21T06:05:39;35.72;;;33.45;;
56285;SDS011;42191;47.562;9.686;2023-03-21T06:08:05;37.75;;;35.42;;
56285;SDS011;42191;47.562;9.686;2023-03-21T06:10:31;36.33;;;34.03;;
56285;SDS011;42191;47.562;9.686;2023-03-21T06:12:57;38.72;;;36.13;;
56285;SDS011;42191;47.562;9.686;2023-03-21T06:15:23;37.25;;;34.95;;
56285;SDS011;42191;47.562;9.686;2023-03-21T06:17:50;38.78;;;36.40;;
56285;SDS011;42191;47.562;9.686;2023-03-21T06:20:16;36.65;;;34.45;;
56285;SDS011;42191;47.562;9.686;2023-03-21T06:22:43;37.50;;;35.20;;
56285;SDS011;42191;47.562;9.686;2023-03-21T06:25:09;36.45;;;34.08;;
56285;SDS011;42191;47.562;9.686;2023-03-21T06:27:35;38.08;;;35.30;;
56285;SDS011;42191;47.562;9.686;2023-03-21T06:30:02;37.10;;;34.80;;
56285;SDS011;42191;47.562;9.686;2023-03-21T06:32:29;38.42;;;36.03;;
56285;SDS011;42191;47.562;9.686;2023-03-21T06:34:56;37.15;;;34.75;;
56285;SDS011;42191;47.562;9.686;2023-03-21T06:37:22;35.88;;;33.70;;
56285;SDS011;42191;47.562;9.686;2023-03-21T06:39:49;35.35;;;33.15;;
56285;SDS011;42191;47.562;9.686;2023-03-21T06:42:16;38.10;;;35.70;;
56285;SDS011;42191;47.562;9.686;2023-03-21T06:44:42;36.58;;;34.38;;
56285;SDS011;42191;47.562;9.686;2023-03-21T06:47:08;37.08;;;34.72;;
56285;SDS011;42191;47.562;9.686;2023-03-21T06:49:34;37.95;;;35.65;;
56285;SDS011;42191;47.562;9.686;2023-03-21T06:52:00;37.67;;;35.17;;
56285;SDS011;42191;47.562;9.686;2023-03-21T06:54:26;36.13;;;33.83;;
56285;SDS011;42191;47.562;9.686;2023-03-21T06:56:53;36.92;;;34.63;;
56285;SDS011;42191;47.562;9.686;2023-03-21T06:59:19;37.40;;;35.10;;
56285;SDS011;42191;47.562;9.686;2023-03-21T07:01:46;36.38;;;34.00;;
56285;SDS011;42191;47.562;9.686;2023-03-21T07:04:12;35.63;;;33.42;;
56285;SDS011;42191;47.562;9.686;2023-03-21T07:06:38;37.53;;;35.22;;
56285;SDS011;42191;47.562;9.686;2023-03-21T07:09:04;36.85;;;34.55;;
56285;SDS011;42191;47.562;9.686;2023-03-21T07:11:31;35.17;;;32.63;;
56285;SDS011;42191;47.562;9.686;2023-03-21T07:13:59;36.08;;;33.67;;
56285;SDS011;42191;47.562;9.686;2023-03-21T07:16:25;34.35;;;32.22;;
56285;SDS011;42191;47.562;9.686;2023-03-21T07:18:51;36.55;;;34.25;;
56285;SDS011;42191;47.562;9.686;2023-03-21T07:21:18;35.35;;;33.20;;
56285;SDS011;42191;47.562;9.686;2023-03-21T07:23:44;35.08;;;32.92;;
56285;SDS011;42191;47.562;9.686;2023-03-21T07:26:10;37.10;;;34.80;;
56285;SDS011;42191;47.562;9.686;2023-03-21T07:28:37;37.88;;;35.53;;
56285;SDS011;42191;47.562;9.686;2023-03-21T07:31:04;36.88;;;34.47;;
56285;SDS011;42191;47.562;9.686;2023-03-21T07:33:31;36.42;;;33.83;;
56285;SDS011;42191;47.562;9.686;2023-03-21T07:35:58;37.22;;;34.83;;
56285;SDS011;42191;47.562;9.686;2023-03-21T07:38:24;35.85;;;33.55;;
56285;SDS011;42191;47.562;9.686;2023-03-21T07:40:51;36.17;;;33.88;;
56285;SDS011;42191;47.562;9.686;2023-03-21T07:43:18;36.00;;;33.70;;
56285;SDS011;42191;47.562;9.686;2023-03-21T07:45:44;36.15;;;33.75;;
56285;SDS011;42191;47.562;9.686;2023-03-21T07:48:11;37.30;;;35.00;;
56285;SDS011;42191;47.562;9.686;2023-03-21T07:50:38;37.33;;;35.03;;
56285;SDS011;42191;47.562;9.686;2023-03-21T07:53:05;35.90;;;33.63;;
56285;SDS011;42191;47.562;9.686;2023-03-21T07:55:31;36.15;;;33.85;;
56285;SDS011;42191;47.562;9.686;2023-03-21T07:58:03;37.40;;;35.10;;
56285;SDS011;42191;47.562;9.686;2023-03-21T08:00:30;36.22;;;33.92;;
56285;SDS011;42191;47.562;9.686;2023-03-21T08:02:56;37.88;;;35.50;;
56285;SDS011;42191;47.562;9.686;2023-03-21T08:05:24;36.60;;;34.13;;
56285;SDS011;42191;47.562;9.686;2023-03-21T08:08:09;37.38;;;34.90;;
56285;SDS011;42191;47.562;9.686;2023-03-21T08:10:35;37.47;;;35.17;;
56285;SDS011;42191;47.562;9.686;2023-03-21T08:13:01;36.42;;;34.13;;
56285;SDS011;42191;47.562;9.686;2023-03-21T08:15:28;37.22;;;34.72;;
56285;SDS011;42191;47.562;9.686;2023-03-21T08:17:54;36.70;;;34.40;;
56285;SDS011;42191;47.562;9.686;2023-03-21T08:20:22;35.42;;;33.22;;
56285;SDS011;42191;47.562;9.686;2023-03-21T08:22:48;36.33;;;33.92;;
56285;SDS011;42191;47.562;9.686;2023-03-21T08:25:15;38.97;;;36.33;;
56285;SDS011;42191;47.562;9.686;2023-03-21T08:27:43;35.33;;;33.05;;
56285;SDS011;42191;47.562;9.686;2023-03-21T08:30:10;36.28;;;33.97;;
56285;SDS011;42191;47.562;9.686;2023-03-21T08:32:39;37.97;;;35.47;;
56285;SDS011;42191;47.562;9.686;2023-03-21T08:35:07;38.97;;;36.53;;
56285;SDS011;42191;47.562;9.686;2023-03-21T08:37:35;39.78;;;36.90;;
56285;SDS011;42191;47.562;9.686;2023-03-21T08:40:03;37.65;;;35.15;;
56285;SDS011;42191;47.562;9.686;2023-03-21T08:42:35;37.85;;;35.38;;
56285;SDS011;42191;47.562;9.686;2023-03-21T08:45:02;39.05;;;36.55;;
56285;SDS011;42191;47.562;9.686;2023-03-21T08:47:29;38.55;;;36.05;;
56285;SDS011;42191;47.562;9.686;2023-03-21T08:49:55;38.90;;;36.13;;
56285;SDS011;42191;47.562;9.686;2023-03-21T08:52:22;38.25;;;35.75;;
56285;SDS011;42191;47.562;9.686;2023-03-21T08:54:49;38.30;;;35.80;;
56285;SDS011;42191;47.562;9.686;2023-03-21T08:57:15;39.00;;;36.50;;
56285;SDS011;42191;47.562;9.686;2023-03-21T08:59:41;40.70;;;38.13;;
56285;SDS011;42191;47.562;9.686;2023-03-21T09:02:09;37.90;;;35.42;;
56285;SDS011;42191;47.562;9.686;2023-03-21T09:04:39;39.15;;;36.70;;
56285;SDS011;42191;47.562;9.686;2023-03-21T09:07:05;39.10;;;36.60;;
56285;SDS011;42191;47.562;9.686;2023-03-21T09:09:31;36.75;;;34.00;;
56285;SDS011;42191;47.562;9.686;2023-03-21T09:11:57;36.33;;;34.03;;
56285;SDS011;42191;47.562;9.686;2023-03-21T09:14:24;36.17;;;33.88;;
56285;SDS011;42191;47.562;9.686;2023-03-21T09:16:50;38.78;;;36.28;;
56285;SDS011;42191;47.562;9.686;2023-03-21T09:19:16;36.28;;;33.95;;
56285;SDS011;42191;47.562;9.686;2023-03-21T09:21:42;35.85;;;33.50;;
56285;SDS011;42191;47.562;9.686;2023-03-21T09:24:09;36.30;;;33.92;;
56285;SDS011;42191;47.562;9.686;2023-03-21T09:26:36;36.92;;;34.53;;
56285;SDS011;42191;47.562;9.686;2023-03-21T09:29:03;35.72;;;33.22;;
56285;SDS011;42191;47.562;9.686;2023-03-21T09:31:30;37.28;;;34.95;;
56285;SDS011;42191;47.562;9.686;2023-03-21T09:33:56;36.08;;;33.78;;
56285;SDS011;42191;47.562;9.686;2023-03-21T09:36:22;36.85;;;34.47;;
56285;SDS011;42191;47.562;9.686;2023-03-21T09:38:51;36.75;;;34.38;;
56285;SDS011;42191;47.562;9.686;2023-03-21T09:41:44;37.45;;;34.92;;
56285;SDS011;42191;47.562;9.686;2023-03-21T09:49:46;36.55;;;34.25;;
56285;SDS011;42191;47.562;9.686;2023-03-21T09:52:23;39.05;;;36.55;;
56285;SDS011;42191;47.562;9.686;2023-03-21T09:54:58;37.22;;;34.67;;
56285;SDS011;42191;47.562;9.686;2023-03-21T10:00:04;36.97;;;34.63;;
56285;SDS011;42191;47.562;9.686;2023-03-21T10:02:43;37.95;;;35.58;;
56285;SDS011;42191;47.562;9.686;2023-03-21T10:07:41;36.78;;;34.38;;
56285;SDS011;42191;47.562;9.686;2023-03-21T10:10:31;38.00;;;35.60;;
56285;SDS011;42191;47.562;9.686;2023-03-21T10:15:29;35.83;;;33.42;;
56285;SDS011;42191;47.562;9.686;2023-03-21T10:20:36;34.05;;;31.95;;
56285;SDS011;42191;47.562;9.686;2023-03-21T10:23:07;37.05;;;34.65;;
56285;SDS011;42191;47.562;9.686;2023-03-21T10:25:39;34.28;;;32.15;;
56285;SDS011;42191;47.562;9.686;2023-03-21T10:28:10;35.17;;;32.97;;
56285;SDS011;42191;47.562;9.686;2023-03-21T10:33:15;35.47;;;33.17;;
56285;SDS011;42191;47.562;9.686;2023-03-21T10:35:52;34.90;;;32.60;;
56285;SDS011;42191;47.562;9.686;2023-03-21T10:38:25;34.50;;;32.35;;
56285;SDS011;42191;47.562;9.686;2023-03-21T10:40:52;37.50;;;35.05;;
56285;SDS011;42191;47.562;9.686;2023-03-21T10:45:55;33.85;;;31.65;;
56285;SDS011;42191;47.562;9.686;2023-03-21T10:48:22;35.70;;;33.40;;
56285;SDS011;42191;47.562;9.686;2023-03-21T10:50:50;34.53;;;32.33;;
56285;SDS011;42191;47.562;9.686;2023-03-21T10:53:22;36.80;;;34.42;;
56285;SDS011;42191;47.562;9.686;2023-03-21T10:56:15;35.03;;;32.65;;
56285;SDS011;42191;47.562;9.686;2023-03-21T10:58:43;36.40;;;34.10;;
56285;SDS011;42191;47.562;9.686;2023-03-21T11:01:12;36.42;;;33.97;;
56285;SDS011;42191;47.562;9.686;2023-03-21T11:03:53;37.97;;;35.47;;
56285;SDS011;42191;47.562;9.686;2023-03-21T11:06:31;35.95;;;33.55;;
56285;SDS011;42191;47.562;9.686;2023-03-21T11:09:11;36.58;;;34.20;;
56285;SDS011;42191;47.562;9.686;2023-03-21T11:11:48;36.10;;;33.78;;
56285;SDS011;42191;47.562;9.686;2023-03-21T11:14:31;36.83;;;34.53;;
56285;SDS011;42191;47.562;9.686;2023-03-21T11:17:00;35.42;;;33.22;;
56285;SDS011;42191;47.562;9.686;2023-03-21T11:19:34;35.60;;;33.30;;
56285;SDS011;42191;47.562;9.686;2023-03-21T11:22:06;35.67;;;33.38;;
56285;SDS011;42191;47.562;9.686;2023-03-21T11:24:35;36.97;;;34.53;;
56285;SDS011;42191;47.562;9.686;2023-03-21T11:27:04;36.55;;;33.95;;
56285;SDS011;42191;47.562;9.686;2023-03-21T11:29:33;36.45;;;34.05;;
56285;SDS011;42191;47.562;9.686;2023-03-21T11:34:45;36.03;;;33.72;;
56285;SDS011;42191;47.562;9.686;2023-03-21T11:40:40;33.05;;;30.98;;
56285;SDS011;42191;47.562;9.686;2023-03-21T11:42:49;34.65;;;32.45;;
56285;SDS011;42191;47.562;9.686;2023-03-21T11:45:21;34.33;;;31.90;;
56285;SDS011;42191;47.562;9.686;2023-03-21T11:47:56;35.63;;;33.33;;
56285;SDS011;42191;47.562;9.686;2023-03-21T11:50:34;34.75;;;32.55;;
56285;SDS011;42191;47.562;9.686;2023-03-21T11:58:52;34.83;;;32.50;;
56285;SDS011;42191;47.562;9.686;2023-03-21T12:01:48;36.20;;;33.88;;
56285;SDS011;42191;47.562;9.686;2023-03-21T12:04:45;36.70;;;34.30;;
56285;SDS011;42191;47.562;9.686;2023-03-21T12:15:32;34.92;;;32.72;;
56285;SDS011;42191;47.562;9.686;2023-03-21T12:18:22;34.15;;;31.98;;
56285;SDS011;42191;47.562;9.686;2023-03-21T12:26:42;35.40;;;33.10;;
56285;SDS011;42191;47.562;9.686;2023-03-21T12:29:39;35.83;;;33.47;;
56285;SDS011;42191;47.562;9.686;2023-03-21T12:37:40;35.92;;;33.63;;
56285;SDS011;42191;47.562;9.686;2023-03-21T12:46:03;33.00;;;30.90;;
56285;SDS011;42191;47.562;9.686;2023-03-21T12:51:33;32.95;;;30.85;;
56285;SDS011;42191;47.562;9.686;2023-03-21T12:54:16;33.63;;;31.42;;
56285;SDS011;42191;47.562;9.686;2023-03-21T13:06:19;35.20;;;32.90;;
56285;SDS011;42191;47.562;9.686;2023-03-21T13:11:17;35.72;;;32.78;;
56285;SDS011;42191;47.562;9.686;2023-03-21T13:13:58;34.92;;;32.63;;
56285;SDS011;42191;47.562;9.686;2023-03-21T13:16:34;34.85;;;32.55;;
56285;SDS011;42191;47.562;9.686;2023-03-21T13:37:48;33.20;;;31.02;;
56285;SDS011;42191;47.562;9.686;2023-03-21T13:40:59;34.38;;;32.17;;
56285;SDS011;42191;47.562;9.686;2023-03-21T14:07:43;33.42;;;31.23;;
56285;SDS011;42191;47.562;9.686;2023-03-21T14:10:17;32.45;;;30.35;;
56285;SDS011;42191;47.562;9.686;2023-03-21T14:12:49;32.78;;;30.75;;
56285;SDS011;42191;47.562;9.686;2023-03-21T14:15:51;33.53;;;31.42;;
56285;SDS011;42191;47.562;9.686;2023-03-21T14:18:22;31.73;;;29.52;;
56285;SDS011;42191;47.562;9.686;2023-03-21T14:20:51;33.17;;;31.08;;
56285;SDS011;42191;47.562;9.686;2023-03-21T14:23:22;33.50;;;31.27;;
56285;SDS011;42191;47.562;9.686;2023-03-21T14:25:49;32.05;;;29.95;;
56285;SDS011;42191;47.562;9.686;2023-03-21T14:28:17;32.17;;;30.17;;
56285;SDS011;42191;47.562;9.686;2023-03-21T14:30:56;30.55;;;28.65;;
56285;SDS011;42191;47.562;9.686;2023-03-21T14:33:40;31.70;;;29.50;;
56285;SDS011;42191;47.562;9.686;2023-03-21T14:36:19;32.08;;;30.00;;
56285;SDS011;42191;47.562;9.686;2023-03-21T14:39:25;30.10;;;28.23;;
56285;SDS011;42191;47.562;9.686;2023-03-21T14:44:20;30.52;;;28.63;;
56285;SDS011;42191;47.562;9.686;2023-03-21T14:47:16;30.33;;;28.33;;
56285;SDS011;42191;47.562;9.686;2023-03-21T14:49:44;29.70;;;27.70;;
56285;SDS011;42191;47.562;9.686;2023-03-21T14:52:13;31.67;;;29.67;;
56285;SDS011;42191;47.562;9.686;2023-03-21T14:54:44;30.30;;;28.43;;
56285;SDS011;42191;47.562;9.686;2023-03-21T14:57:13;29.33;;;27.40;;
56285;SDS011;42191;47.562;9.686;2023-03-21T14:59:46;31.02;;;29.02;;
56285;SDS011;42191;47.562;9.686;2023-03-21T15:02:17;30.15;;;28.25;;
56285;SDS011;42191;47.562;9.686;2023-03-21T15:04:56;30.83;;;28.95;;
56285;SDS011;42191;47.562;9.686;2023-03-21T15:07:31;31.23;;;29.23;;
56285;SDS011;42191;47.562;9.686;2023-03-21T15:10:15;31.52;;;29.50;;
56285;SDS011;42191;47.562;9.686;2023-03-21T15:12:52;31.63;;;29.63;;
56285;SDS011;42191;47.562;9.686;2023-03-21T15:15:20;30.60;;;28.70;;
56285;SDS011;42191;47.562;9.686;2023-03-21T15:17:48;31.83;;;29.83;;
56285;SDS011;42191;47.562;9.686;2023-03-21T15:20:17;33.83;;;31.52;;
56285;SDS011;42191;47.562;9.686;2023-03-21T15:22:56;31.27;;;29.27;;
56285;SDS011;42191;47.562;9.686;2023-03-21T15:25:31;32.03;;;30.00;;
56285;SDS011;42191;47.562;9.686;2023-03-21T15:28:00;33.28;;;31.08;;
56285;SDS011;42191;47.562;9.686;2023-03-21T15:30:27;32.42;;;30.15;;
56285;SDS011;42191;47.562;9.686;2023-03-21T15:32:55;33.42;;;31.23;;
56285;SDS011;42191;47.562;9.686;2023-03-21T15:35:27;33.55;;;31.38;;
56285;SDS011;42191;47.562;9.686;2023-03-21T15:37:58;32.65;;;30.55;;
56285;SDS011;42191;47.562;9.686;2023-03-21T15:40:27;34.05;;;31.95;;
56285;SDS011;42191;47.562;9.686;2023-03-21T15:43:04;33.40;;;31.05;;
56285;SDS011;42191;47.562;9.686;2023-03-21T15:45:31;32.40;;;30.27;;
56285;SDS011;42191;47.562;9.686;2023-03-21T15:47:59;32.72;;;30.63;;
56285;SDS011;42191;47.562;9.686;2023-03-21T15:50:30;31.65;;;29.65;;
56285;SDS011;42191;47.562;9.686;2023-03-21T15:53:00;29.48;;;27.65;;
56285;SDS011;42191;47.562;9.686;2023-03-21T15:55:31;32.17;;;30.23;;
56285;SDS011;42191;47.562;9.686;2023-03-21T15:58:14;32.53;;;30.02;;
56285;SDS011;42191;47.562;9.686;2023-03-21T16:00:47;34.25;;;31.80;;
56285;SDS011;42191;47.562;9.686;2023-03-21T16:03:29;32.22;;;30.20;;
56285;SDS011;42191;47.562;9.686;2023-03-21T16:08:52;34.17;;;31.98;;
56285;SDS011;42191;47.562;9.686;2023-03-21T16:11:48;33.75;;;31.52;;
56285;SDS011;42191;47.562;9.686;2023-03-21T16:14:20;33.10;;;30.92;;
56285;SDS011;42191;47.562;9.686;2023-03-21T16:16:48;33.65;;;31.48;;
56285;SDS011;42191;47.562;9.686;2023-03-21T16:19:14;35.17;;;32.88;;
56285;SDS011;42191;47.562;9.686;2023-03-21T16:21:41;32.28;;;30.27;;
56285;SDS011;42191;47.562;9.686;2023-03-21T16:24:08;31.77;;;29.75;;
56285;SDS011;42191;47.562;9.686;2023-03-21T16:26:37;34.20;;;32.03;;
56285;SDS011;42191;47.562;9.686;2023-03-21T16:29:09;34.25;;;32.15;;
56285;SDS011;42191;47.562;9.686;2023-03-21T16:31:38;35.05;;;32.78;;
56285;SDS011;42191;47.562;9.686;2023-03-21T16:34:05;34.67;;;32.47;;
56285;SDS011;42191;47.562;9.686;2023-03-21T16:36:32;33.55;;;31.45;;
56285;SDS011;42191;47.562;9.686;2023-03-21T16:39:19;32.47;;;30.27;;
56285;SDS011;42191;47.562;9.686;2023-03-21T16:41:46;33.22;;;30.98;;
56285;SDS011;42191;47.562;9.686;2023-03-21T16:44:14;33.72;;;31.58;;
56285;SDS011;42191;47.562;9.686;2023-03-21T16:46:40;33.55;;;31.27;;
56285;SDS011;42191;47.562;9.686;2023-03-21T16:49:15;34.33;;;32.13;;
56285;SDS011;42191;47.562;9.686;2023-03-21T16:51:50;33.08;;;31.02;;
56285;SDS011;42191;47.562;9.686;2023-03-21T16:54:18;34.22;;;32.03;;
56285;SDS011;42191;47.562;9.686;2023-03-21T16:56:48;34.13;;;31.52;;
56285;SDS011;42191;47.562;9.686;2023-03-21T16:59:19;33.63;;;31.52;;
56285;SDS011;42191;47.562;9.686;2023-03-21T17:01:45;35.45;;;33.05;;
56285;SDS011;42191;47.562;9.686;2023-03-21T17:04:12;34.83;;;32.42;;
56285;SDS011;42191;47.562;9.686;2023-03-21T17:06:45;34.60;;;32.33;;
56285;SDS011;42191;47.562;9.686;2023-03-21T17:09:14;34.15;;;31.73;;
56285;SDS011;42191;47.562;9.686;2023-03-21T17:11:42;32.22;;;30.08;;
56285;SDS011;42191;47.562;9.686;2023-03-21T17:14:09;34.03;;;31.48;;
56285;SDS011;42191;47.562;9.686;2023-03-21T17:16:37;34.45;;;32.03;;
56285;SDS011;42191;47.562;9.686;2023-03-21T17:19:17;34.53;;;32.30;;
56285;SDS011;42191;47.562;9.686;2023-03-21T17:21:46;33.90;;;31.75;;
56285;SDS011;42191;47.562;9.686;2023-03-21T17:24:12;35.53;;;33.30;;